createdAt,value
2022-08-17T00:01:32.716Z,68.64
2022-08-17T00:04:19.572Z,68.53
2022-08-17T00:06:49.500Z,68.60
2022-08-17T00:09:18.356Z,68.64
2022-08-17T00:12:40.469Z,68.44
2022-08-17T00:14:33.244Z,68.41
2022-08-17T00:16:59.971Z,69.08
2022-08-17T00:19:27.261Z,68.78
2022-08-17T00:22:34.586Z,69.14
2022-08-17T00:24:43.470Z,69.34
2022-08-17T00:27:10.233Z,69.41
2022-08-17T00:29:36.934Z,69.59
2022-08-17T00:33:13.693Z,69.60
2022-08-17T00:34:50.767Z,69.62
2022-08-17T00:37:17.516Z,69.34
2022-08-17T00:39:44.425Z,69.36
2022-08-17T00:42:18.561Z,69.65
2022-08-17T00:44:45.811Z,69.85
2022-08-17T00:47:12.594Z,69.88
2022-08-17T00:49:39.315Z,69.59
2022-08-17T00:52:12.483Z,69.90
2022-08-17T00:54:42.367Z,69.91
2022-08-17T00:57:13.028Z,69.83
2022-08-17T00:59:44.626Z,70.04
2022-08-17T01:02:13.398Z,70.04
2022-08-17T01:04:40.411Z,70.31
2022-08-17T01:07:07.800Z,70.13
2022-08-17T01:09:34.601Z,70.10
2022-08-17T01:12:01.646Z,70.15
2022-08-17T01:14:28.421Z,69.77
2022-08-17T01:16:56.027Z,69.88
2022-08-17T01:19:35.994Z,69.77
2022-08-17T01:22:07.230Z,70.02
2022-08-17T01:24:41.902Z,70.17
2022-08-17T01:27:10.728Z,70.60
2022-08-17T01:29:39.096Z,70.31
2022-08-17T01:32:07.441Z,70.42
2022-08-17T01:34:43.410Z,70.09
2022-08-17T01:37:12.417Z,70.00
2022-08-17T01:39:44.339Z,70.24
2022-08-17T01:42:23.619Z,70.39
2022-08-17T01:44:53.402Z,70.37
2022-08-17T01:47:20.104Z,70.61
2022-08-17T01:49:46.815Z,70.78
2022-08-17T01:52:13.629Z,70.88
2022-08-17T01:54:41.994Z,70.98
2022-08-17T01:57:10.254Z,70.89
2022-08-17T01:59:37.159Z,70.62
2022-08-17T02:02:04.972Z,70.80
2022-08-17T02:04:32.151Z,70.73
2022-08-17T02:06:59.065Z,70.83
2022-08-17T02:09:29.494Z,70.22
2022-08-17T02:11:58.427Z,70.42
2022-08-17T02:14:25.369Z,70.50
2022-08-17T02:16:52.701Z,70.65
2022-08-17T02:19:19.779Z,70.55
2022-08-17T02:21:48.725Z,70.69
2022-08-17T02:25:00.319Z,71.06
2022-08-17T02:27:08.846Z,71.14
2022-08-17T02:29:35.607Z,70.77
2022-08-17T02:32:02.762Z,70.95
2022-08-17T02:34:30.148Z,70.93
2022-08-17T02:36:56.979Z,70.69
2022-08-17T02:39:23.912Z,70.98
2022-08-17T02:41:50.728Z,71.19
2022-08-17T02:44:38.923Z,71.19
2022-08-17T02:47:04.734Z,71.30
2022-08-17T02:49:31.628Z,71.15
2022-08-17T02:51:59.037Z,71.23
2022-08-17T02:54:39.447Z,70.77
2022-08-17T02:57:07.729Z,70.81
2022-08-17T02:59:34.430Z,70.55
2022-08-17T03:02:03.716Z,70.76
2022-08-17T03:04:31.332Z,70.77
2022-08-17T03:07:02.233Z,70.87
2022-08-17T03:09:28.976Z,71.08
2022-08-17T03:11:56.230Z,71.27
2022-08-17T03:14:26.156Z,71.14
2022-08-17T03:16:53.202Z,71.31
2022-08-17T03:19:19.973Z,70.95
2022-08-17T03:21:46.721Z,71.49
2022-08-17T03:24:21.748Z,71.49
2022-08-17T03:26:55.620Z,71.79
2022-08-17T03:29:22.320Z,71.97
2022-08-17T03:31:50.216Z,71.91
2022-08-17T03:34:17.092Z,71.57
2022-08-17T03:36:43.885Z,71.79
2022-08-17T03:39:10.587Z,71.68
2022-08-17T03:41:39.056Z,71.92
2022-08-17T03:44:05.965Z,72.00
2022-08-17T03:46:51.265Z,71.87
2022-08-17T03:49:36.724Z,72.05
2022-08-17T03:52:22.058Z,71.79
2022-08-17T03:55:07.401Z,71.75
2022-08-17T03:57:34.152Z,71.79
2022-08-17T04:00:00.870Z,72.00
2022-08-17T04:02:33.343Z,72.01
2022-08-17T04:05:00.109Z,72.23
2022-08-17T04:07:29.053Z,72.01
2022-08-17T04:09:55.917Z,72.38
2022-08-17T04:12:24.107Z,72.63
2022-08-17T04:14:52.609Z,72.34
2022-08-17T04:17:26.996Z,72.64
2022-08-17T04:19:54.608Z,72.84
2022-08-17T04:22:31.401Z,72.87
2022-08-17T04:25:02.906Z,72.98
2022-08-17T04:27:29.659Z,73.08
2022-08-17T04:29:56.414Z,73.07
2022-08-17T04:32:59.376Z,73.13
2022-08-17T04:35:10.243Z,72.89
2022-08-17T04:37:36.953Z,73.04
2022-08-17T04:40:22.896Z,73.03
2022-08-17T04:43:08.707Z,73.49
2022-08-17T04:45:40.037Z,73.27
2022-08-17T04:48:07.070Z,73.26
2022-08-17T04:50:37.619Z,73.51
2022-08-17T04:53:07.151Z,73.52
2022-08-17T04:55:33.853Z,73.68
2022-08-17T04:58:00.704Z,73.95
2022-08-17T05:00:27.673Z,74.18
2022-08-17T05:02:55.841Z,73.95
2022-08-17T05:05:28.565Z,73.84
2022-08-17T05:07:57.736Z,74.05
2022-08-17T05:10:26.878Z,73.94
2022-08-17T05:13:10.266Z,74.23
2022-08-17T05:15:39.699Z,74.29
2022-08-17T05:18:12.306Z,74.53
2022-08-17T05:20:40.391Z,74.58
2022-08-17T05:23:09.723Z,74.71
2022-08-17T05:25:40.847Z,74.86
2022-08-17T05:28:08.304Z,74.37
2022-08-17T05:30:39.916Z,74.43
2022-08-17T05:33:09.891Z,74.58
2022-08-17T05:35:39.957Z,74.82
2022-08-17T05:38:08.185Z,74.71
2022-08-17T05:40:36.491Z,74.83
2022-08-17T05:43:07.404Z,74.87
2022-08-17T05:45:55.260Z,75.38
2022-08-17T05:48:21.437Z,75.33
2022-08-17T05:51:21.207Z,75.48
2022-08-17T05:54:13.147Z,74.88
2022-08-17T05:56:45.940Z,74.95
2022-08-17T05:59:34.518Z,74.93
2022-08-17T06:02:16.419Z,75.21
2022-08-17T06:05:01.356Z,74.88
2022-08-17T06:07:50.647Z,75.08
2022-08-17T06:10:27.087Z,74.87
2022-08-17T06:13:18.965Z,74.70
2022-08-17T06:16:05.455Z,74.55
2022-08-17T06:19:06.547Z,74.16
2022-08-17T06:21:36.029Z,73.86
2022-08-17T06:24:07.600Z,73.30
2022-08-17T06:26:42.475Z,72.90
2022-08-17T06:30:02.875Z,72.38
2022-08-17T06:32:29.817Z,71.53
2022-08-17T06:34:57.796Z,70.93
2022-08-17T06:37:48.902Z,66.47
2022-08-17T06:40:40.433Z,59.83
2022-08-17T06:43:25.498Z,58.88
2022-08-17T06:46:34.287Z,58.57
2022-08-17T06:49:09.746Z,56.91
2022-08-17T06:51:43.507Z,54.77
2022-08-17T06:54:32.837Z,52.05
2022-08-17T06:57:08.029Z,49.78
2022-08-17T06:59:55.340Z,48.91
2022-08-17T07:02:58.011Z,48.43
2022-08-17T07:05:37.417Z,45.97
2022-08-17T07:08:25.314Z,47.68
2022-08-17T07:10:57.840Z,44.64
2022-08-17T07:13:51.067Z,43.78
2022-08-17T07:16:47.188Z,45.63
2022-08-17T07:19:20.230Z,48.05
2022-08-17T07:22:05.544Z,46.66
2022-08-17T07:24:53.544Z,48.41
2022-08-17T07:27:22.996Z,45.44
2022-08-17T07:29:56.783Z,43.14
2022-08-17T07:32:31.951Z,44.09
2022-08-17T07:35:11.217Z,42.40
2022-08-17T07:37:40.550Z,43.26
2022-08-17T07:40:17.249Z,44.68
2022-08-17T07:43:01.376Z,38.14
2022-08-17T07:45:49.208Z,37.98
2022-08-17T07:48:21.741Z,39.81
2022-08-17T07:50:49.460Z,37.35
2022-08-17T07:53:20.235Z,37.14
2022-08-17T07:55:46.996Z,39.07
2022-08-17T07:58:18.925Z,35.05
2022-08-17T08:00:46.547Z,36.47
2022-08-17T08:03:28.652Z,33.86
2022-08-17T08:05:57.766Z,34.67
2022-08-17T08:08:29.252Z,34.23
2022-08-17T08:11:11.709Z,38.17
2022-08-17T08:13:44.017Z,38.63
2022-08-17T08:16:32.096Z,35.03
2022-08-17T08:19:01.480Z,35.46
2022-08-17T08:21:52.303Z,32.89
2022-08-17T08:24:48.140Z,34.12
2022-08-17T08:27:33.714Z,32.73
2022-08-17T08:30:00.362Z,32.07
2022-08-17T08:32:50.438Z,32.35
2022-08-17T08:35:31.016Z,32.07
2022-08-17T08:38:36.629Z,30.28
2022-08-17T08:41:17.930Z,28.94
2022-08-17T08:43:52.675Z,29.36
2022-08-17T08:46:47.730Z,28.50
2022-08-17T08:50:01.876Z,31.19
2022-08-17T08:52:27.207Z,32.27
2022-08-17T08:55:01.125Z,29.79
2022-08-17T08:57:34.767Z,28.64
2022-08-17T09:00:19.266Z,29.66
2022-08-17T09:03:04.902Z,29.10
2022-08-17T09:06:00.284Z,29.08
2022-08-17T09:08:45.707Z,29.23
2022-08-17T09:11:31.095Z,26.27
2022-08-17T09:14:06.243Z,26.64
2022-08-17T09:17:04.846Z,26.64
2022-08-17T09:19:49.255Z,26.04
2022-08-17T09:22:31.736Z,26.42
2022-08-17T09:25:03.316Z,27.04
2022-08-17T09:27:54.776Z,26.11
2022-08-17T09:30:23.831Z,26.92
2022-08-17T09:32:55.467Z,24.94
2022-08-17T09:35:37.476Z,24.76
2022-08-17T09:38:32.806Z,24.27
2022-08-17T09:41:19.961Z,24.12
2022-08-17T09:44:22.589Z,24.67
2022-08-17T09:46:57.197Z,24.35
2022-08-17T09:49:45.304Z,24.73
2022-08-17T09:52:24.281Z,24.53
2022-08-17T09:54:53.194Z,23.06
2022-08-17T09:57:30.359Z,24.19
2022-08-17T10:00:16.677Z,25.14
2022-08-17T10:02:55.992Z,24.10
2022-08-17T10:05:46.648Z,24.03
2022-08-17T10:08:30.167Z,23.82
2022-08-17T10:11:15.125Z,24.33
2022-08-17T10:13:59.460Z,25.03
2022-08-17T10:16:32.643Z,24.04
2022-08-17T10:19:30.443Z,24.09
2022-08-17T10:22:35.309Z,24.54
2022-08-17T10:25:26.131Z,23.45
2022-08-17T10:28:05.880Z,23.81
2022-08-17T10:30:38.158Z,24.03
2022-08-17T10:33:07.188Z,24.14
2022-08-17T10:35:52.531Z,22.52
2022-08-17T10:38:37.397Z,23.37
2022-08-17T10:41:15.390Z,23.48
2022-08-17T10:44:38.860Z,23.06
2022-08-17T10:46:54.461Z,22.54
2022-08-17T10:49:21.325Z,21.31
2022-08-17T10:51:51.990Z,21.61
2022-08-17T10:54:24.710Z,21.38
2022-08-17T10:56:54.056Z,21.79
2022-08-17T10:59:36.227Z,21.64
2022-08-17T11:02:12.442Z,20.96
2022-08-17T11:05:00.392Z,21.55
2022-08-17T11:07:46.899Z,21.38
2022-08-17T11:10:26.000Z,19.89
2022-08-17T11:13:14.573Z,19.68
2022-08-17T11:16:03.557Z,21.99
2022-08-17T11:18:58.411Z,21.90
2022-08-17T11:21:39.398Z,20.43
2022-08-17T11:24:10.306Z,18.88
2022-08-17T11:26:38.625Z,19.92
2022-08-17T11:29:23.264Z,21.28
2022-08-17T11:32:13.688Z,20.79
2022-08-17T11:34:42.656Z,21.92
2022-08-17T11:37:54.159Z,22.16
2022-08-17T11:40:36.465Z,21.01
2022-08-17T11:43:14.459Z,20.99
2022-08-17T11:45:56.149Z,22.02
2022-08-17T11:48:51.094Z,23.46
2022-08-17T11:51:35.627Z,23.53
2022-08-17T11:57:02.569Z,24.81
2022-08-17T11:59:42.427Z,24.32
2022-08-17T12:02:31.747Z,23.85
2022-08-17T12:05:14.328Z,24.03
2022-08-17T12:07:49.830Z,24.57
2022-08-17T12:10:21.768Z,24.01
2022-08-17T12:12:50.560Z,25.57
2022-08-17T12:15:36.253Z,24.63
2022-08-17T12:18:03.024Z,23.28
2022-08-17T12:20:43.123Z,25.64
2022-08-17T12:23:15.035Z,25.50
2022-08-17T12:25:56.798Z,25.65
2022-08-17T12:28:34.288Z,25.95
2022-08-17T12:31:08.173Z,26.29
2022-08-17T12:33:36.451Z,27.31
2022-08-17T12:36:07.637Z,28.77
2022-08-17T12:38:37.127Z,27.27
2022-08-17T12:41:24.884Z,27.27
2022-08-17T12:44:05.753Z,28.16
2022-08-17T12:46:45.143Z,25.96
2022-08-17T12:49:13.799Z,26.75
2022-08-17T12:51:45.895Z,27.35
2022-08-17T12:54:48.039Z,29.50
2022-08-17T12:57:18.760Z,27.63
2022-08-17T12:59:50.834Z,26.81
2022-08-17T13:02:33.096Z,24.76
2022-08-17T13:05:01.122Z,25.71
2022-08-17T13:07:32.628Z,24.53
2022-08-17T13:09:59.382Z,24.08
2022-08-17T13:12:28.632Z,25.62
2022-08-17T13:14:58.783Z,25.82
2022-08-17T13:17:28.967Z,27.00
2022-08-17T13:19:55.976Z,25.73
2022-08-17T13:22:24.756Z,27.09
2022-08-17T13:24:54.671Z,27.88
2022-08-17T13:27:23.235Z,28.38
2022-08-17T13:29:53.838Z,27.31
2022-08-17T13:32:33.509Z,27.29
2022-08-17T13:35:13.811Z,27.41
2022-08-17T13:37:57.165Z,27.94
2022-08-17T13:40:41.858Z,27.56
2022-08-17T13:43:09.486Z,26.66
2022-08-17T13:45:43.867Z,26.36
2022-08-17T13:48:28.838Z,27.46
2022-08-17T13:50:55.465Z,26.65
2022-08-17T13:53:31.404Z,27.65
2022-08-17T13:56:04.039Z,27.66
2022-08-17T13:58:42.203Z,27.93
2022-08-17T14:01:28.352Z,26.38
2022-08-17T14:03:55.601Z,27.34
2022-08-17T14:06:51.507Z,27.89
2022-08-17T14:09:11.286Z,27.32
2022-08-17T14:11:38.431Z,26.62
2022-08-17T14:14:05.159Z,26.66
2022-08-17T14:16:32.054Z,27.68
2022-08-17T14:18:58.949Z,27.26
2022-08-17T14:21:25.729Z,27.68
2022-08-17T14:23:54.896Z,26.17
2022-08-17T14:26:21.953Z,26.57
2022-08-17T14:28:54.751Z,26.72
2022-08-17T14:31:27.783Z,27.02
2022-08-17T14:33:54.802Z,26.68
2022-08-17T14:36:21.602Z,25.42
2022-08-17T14:38:48.404Z,25.12
2022-08-17T14:41:21.452Z,24.79
2022-08-17T14:43:48.848Z,24.87
2022-08-17T14:46:15.618Z,25.35
2022-08-17T14:48:42.441Z,25.97
2022-08-17T14:51:09.203Z,25.41
2022-08-17T14:53:36.844Z,25.81
2022-08-17T14:56:04.429Z,26.35
2022-08-17T14:58:31.216Z,27.02
2022-08-17T15:00:58.089Z,25.88
2022-08-17T15:03:24.853Z,26.69
2022-08-17T15:05:51.562Z,26.90
2022-08-17T15:08:19.642Z,28.53
2022-08-17T15:10:46.686Z,28.39
2022-08-17T15:13:19.955Z,29.87
2022-08-17T15:15:47.266Z,27.41
2022-08-17T15:18:14.137Z,26.43
2022-08-17T15:20:41.267Z,25.92
2022-08-17T15:23:09.741Z,25.90
2022-08-17T15:25:36.464Z,26.63
2022-08-17T15:28:03.264Z,26.67
2022-08-17T15:30:30.743Z,27.13
2022-08-17T15:32:59.117Z,26.26
2022-08-17T15:35:31.586Z,26.59
2022-08-17T15:38:10.690Z,27.72
2022-08-17T15:40:41.614Z,27.69
2022-08-17T15:43:14.772Z,28.00
2022-08-17T15:45:41.978Z,29.53
2022-08-17T15:48:14.432Z,30.22
2022-08-17T15:50:42.529Z,29.09
2022-08-17T15:53:09.385Z,28.47
2022-08-17T15:55:37.810Z,27.77
2022-08-17T15:58:04.690Z,27.50
2022-08-17T16:00:35.424Z,26.95
2022-08-17T16:04:01.840Z,28.27
2022-08-17T16:06:07.881Z,28.19
2022-08-17T16:08:37.324Z,28.15
2022-08-17T16:11:04.700Z,27.68
2022-08-17T16:13:31.675Z,26.99
2022-08-17T16:15:58.421Z,29.70
2022-08-17T16:18:28.373Z,31.62
2022-08-17T16:20:55.517Z,31.60
2022-08-17T16:23:22.755Z,31.15
2022-08-17T16:25:53.188Z,31.85
2022-08-17T16:28:21.970Z,32.22
2022-08-17T16:30:48.830Z,32.74
2022-08-17T16:33:16.911Z,34.80
2022-08-17T16:35:44.112Z,34.84
2022-08-17T16:38:12.557Z,34.74
2022-08-17T16:40:40.839Z,35.51
2022-08-17T16:43:12.243Z,36.34
2022-08-17T16:45:40.827Z,36.36
2022-08-17T16:48:08.747Z,36.41
2022-08-17T16:50:36.951Z,36.88
2022-08-17T16:53:19.153Z,37.38
2022-08-17T16:55:49.635Z,38.79
2022-08-17T16:58:16.468Z,39.03
2022-08-17T17:00:45.473Z,39.32
2022-08-17T17:03:19.049Z,39.81
2022-08-17T17:06:07.343Z,41.10
2022-08-17T17:09:04.661Z,43.09
2022-08-17T17:11:42.525Z,45.20
2022-08-17T17:14:20.837Z,46.44
2022-08-17T17:17:03.848Z,47.29
2022-08-17T17:20:09.818Z,48.09
2022-08-17T17:23:04.621Z,46.13
2022-08-17T17:25:49.007Z,47.36
2022-08-17T17:28:46.484Z,45.54
2022-08-17T17:31:23.932Z,46.00
2022-08-17T17:33:54.630Z,47.38
2022-08-17T17:36:30.329Z,47.52
2022-08-17T17:39:17.492Z,45.79
2022-08-17T17:41:49.744Z,47.77
2022-08-17T17:44:19.725Z,47.47
2022-08-17T17:46:52.261Z,47.27
2022-08-17T17:49:19.378Z,46.75
2022-08-17T17:52:07.809Z,47.96
2022-08-17T17:54:51.392Z,47.48
2022-08-17T17:57:39.508Z,47.89
2022-08-17T18:00:15.583Z,46.96
2022-08-17T18:03:04.002Z,47.32
2022-08-17T18:05:36.924Z,48.70
2022-08-17T18:08:34.383Z,47.87
2022-08-17T18:11:34.865Z,47.16
2022-08-17T18:14:23.369Z,46.42
2022-08-17T18:16:55.973Z,46.62
2022-08-17T18:19:25.570Z,47.90
2022-08-17T18:21:56.077Z,47.13
2022-08-17T18:24:32.228Z,46.62
2022-08-17T18:27:00.907Z,46.05
2022-08-17T18:29:27.686Z,46.91
2022-08-17T18:32:19.396Z,47.62
2022-08-17T18:34:48.546Z,47.48
2022-08-17T18:37:34.509Z,47.35
2022-08-17T18:40:16.746Z,48.44
2022-08-17T18:42:46.658Z,48.61
2022-08-17T18:45:13.945Z,48.06
2022-08-17T18:47:55.481Z,48.38
2022-08-17T18:50:26.809Z,48.55
2022-08-17T18:52:56.149Z,48.70
2022-08-17T18:55:31.447Z,49.15
2022-08-17T18:58:14.582Z,49.02
2022-08-17T19:00:43.941Z,48.74
2022-08-17T19:03:18.013Z,47.86
2022-08-17T19:05:48.757Z,47.97
2022-08-17T19:08:21.832Z,48.01
2022-08-17T19:11:18.658Z,47.86
2022-08-17T19:13:52.735Z,49.02
2022-08-17T19:16:24.213Z,49.56
2022-08-17T19:18:51.151Z,49.89
2022-08-17T19:21:37.415Z,49.44
2022-08-17T19:24:19.737Z,49.61
2022-08-17T19:26:56.983Z,50.04
2022-08-17T19:29:43.286Z,49.56
2022-08-17T19:32:11.140Z,49.60
2022-08-17T19:34:39.319Z,50.27
2022-08-17T19:37:13.060Z,49.97
2022-08-17T19:39:49.045Z,50.39
2022-08-17T19:42:40.723Z,50.61
2022-08-17T19:45:39.868Z,51.17
2022-08-17T19:48:18.178Z,51.03
2022-08-17T19:50:54.249Z,51.28
2022-08-17T19:53:47.836Z,51.09
2022-08-17T19:56:38.853Z,51.03
2022-08-17T19:59:15.397Z,51.60
2022-08-17T20:01:45.997Z,51.73
2022-08-17T20:04:32.350Z,52.19
2022-08-17T20:07:24.267Z,52.44
2022-08-17T20:09:55.354Z,52.81
2022-08-17T20:12:31.909Z,52.17
2022-08-17T20:15:07.982Z,52.11
2022-08-17T20:17:37.439Z,52.57
2022-08-17T20:20:24.042Z,53.08
2022-08-17T20:22:55.242Z,53.46
2022-08-17T20:25:46.810Z,53.28
2022-08-17T20:28:24.083Z,53.50
2022-08-17T20:30:51.657Z,53.74
2022-08-17T20:33:26.767Z,54.18
2022-08-17T20:36:16.333Z,54.33
2022-08-17T20:38:55.428Z,54.15
2022-08-17T20:41:27.670Z,54.67
2022-08-17T20:43:57.331Z,54.33
2022-08-17T20:46:27.203Z,55.09
2022-08-17T20:48:58.084Z,54.68
2022-08-17T20:51:39.578Z,55.16
2022-08-17T20:54:18.652Z,55.17
2022-08-17T20:56:45.366Z,55.10
2022-08-17T20:59:22.505Z,55.17
2022-08-17T21:02:17.478Z,55.16
2022-08-17T21:04:52.950Z,55.41
2022-08-17T21:07:45.974Z,54.90
2022-08-17T21:10:16.250Z,54.60
2022-08-17T21:12:49.005Z,55.58
2022-08-17T21:15:32.660Z,55.40
2022-08-17T21:18:12.102Z,55.35
2022-08-17T21:20:39.208Z,54.98
2022-08-17T21:23:12.686Z,55.60
2022-08-17T21:25:53.231Z,55.17
2022-08-17T21:29:00.946Z,55.43
2022-08-17T21:31:38.842Z,55.18
2022-08-17T21:34:32.983Z,55.66
2022-08-17T21:37:18.592Z,56.39
2022-08-17T21:39:55.671Z,55.85
2022-08-17T21:42:29.835Z,56.26
2022-08-17T21:45:00.948Z,55.93
2022-08-17T21:47:29.463Z,56.52
2022-08-17T21:49:56.920Z,57.04
2022-08-17T21:52:24.843Z,56.61
2022-08-17T21:54:57.577Z,57.34
2022-08-17T21:57:27.841Z,56.62
2022-08-17T22:00:00.011Z,57.12
2022-08-17T22:02:37.560Z,56.27
2022-08-17T22:05:14.271Z,56.97
2022-08-17T22:07:50.750Z,56.51
2022-08-17T22:10:42.716Z,56.83
2022-08-17T22:13:19.785Z,56.97
2022-08-17T22:16:28.469Z,56.64
2022-08-17T22:18:54.667Z,56.74
2022-08-17T22:21:22.518Z,57.44
2022-08-17T22:24:06.249Z,56.83
2022-08-17T22:27:03.706Z,57.22
2022-08-17T22:29:53.182Z,57.26
2022-08-17T22:32:33.565Z,57.25
2022-08-17T22:35:32.834Z,57.13
2022-08-17T22:38:18.281Z,57.20
2022-08-17T22:40:50.585Z,57.49
2022-08-17T22:43:20.811Z,57.10
2022-08-17T22:45:56.253Z,57.20
2022-08-17T22:48:27.408Z,57.62
2022-08-17T22:51:15.142Z,58.11
2022-08-17T22:54:12.631Z,58.12
2022-08-17T22:57:12.332Z,57.69
2022-08-17T22:59:50.960Z,57.70
2022-08-17T23:02:27.642Z,57.08
2022-08-17T23:04:54.295Z,57.25
2022-08-17T23:07:22.938Z,57.46
2022-08-17T23:09:51.556Z,57.67
2022-08-17T23:12:24.602Z,57.54
2022-08-17T23:14:56.863Z,57.61
2022-08-17T23:17:23.605Z,57.12
2022-08-17T23:19:50.311Z,57.61
2022-08-17T23:22:17.048Z,57.47
2022-08-17T23:24:49.071Z,57.87
2022-08-17T23:27:16.400Z,57.70
2022-08-17T23:29:43.233Z,58.00
2022-08-17T23:32:12.356Z,58.04
2022-08-17T23:34:40.287Z,57.78
2022-08-17T23:37:07.640Z,57.64
2022-08-17T23:39:34.832Z,58.01
2022-08-17T23:42:05.275Z,57.89
2022-08-17T23:44:32.831Z,58.13
2022-08-17T23:46:59.676Z,58.06
2022-08-17T23:49:26.373Z,58.23
2022-08-17T23:51:56.050Z,58.52
2022-08-17T23:54:34.799Z,58.36
2022-08-17T23:57:02.443Z,58.16
2022-08-17T23:59:29.404Z,58.60
